sensor_id;sensor_type;location;lat;lon;timestamp;P1;P2;P0
77516;PMS7003;68414;53.946;27.634;2023-05-10T00:00:54;8.983334;8.433333;5.416667
77516;PMS7003;68414;53.946;27.634;2023-05-10T00:01:54;7.000000;6.683333;5.400000
77516;PMS7003;68414;53.946;27.634;2023-05-10T00:02:55;6.683333;6.683333;4.866667
77516;PMS7003;68414;53.946;27.634;2023-05-10T00:03:55;6.716667;6.533333;5.083333
77516;PMS7003;68414;53.946;27.634;2023-05-10T00:04:55;7.933333;7.633333;5.400000
77516;PMS7003;68414;53.946;27.634;2023-05-10T00:05:54;8.950000;8.150000;5.283333
77516;PMS7003;68414;53.946;27.634;2023-05-10T00:06:54;7.733333;7.150000;4.933333
77516;PMS7003;68414;53.946;27.634;2023-05-10T00:07:54;7.100000;6.733333;5.183333
77516;PMS7003;68414;53.946;27.634;2023-05-10T00:08:54;6.950000;6.166667;4.933333
77516;PMS7003;68414;53.946;27.634;2023-05-10T00:09:54;7.533333;6.750000;5.683333
77516;PMS7003;68414;53.946;27.634;2023-05-10T00:10:54;8.416667;7.516667;6.000000
77516;PMS7003;68414;53.946;27.634;2023-05-10T00:11:54;7.316667;6.850000;5.150000
77516;PMS7003;68414;53.946;27.634;2023-05-10T00:12:54;5.866667;5.866667;4.283333
77516;PMS7003;68414;53.946;27.634;2023-05-10T00:13:54;5.266667;5.266667;4.466667
77516;PMS7003;68414;53.946;27.634;2023-05-10T00:14:56;6.566667;6.566667;4.900000
77516;PMS7003;68414;53.946;27.634;2023-05-10T00:15:54;6.683333;6.683333;5.000000
77516;PMS7003;68414;53.946;27.634;2023-05-10T00:16:54;8.400000;8.200000;6.116667
77516;PMS7003;68414;53.946;27.634;2023-05-10T00:17:54;7.516667;7.516667;6.050000
77516;PMS7003;68414;53.946;27.634;2023-05-10T00:18:55;6.466667;6.350000;4.650000
77516;PMS7003;68414;53.946;27.634;2023-05-10T00:19:54;6.366667;6.366667;5.183333
77516;PMS7003;68414;53.946;27.634;2023-05-10T00:20:54;7.333333;7.083333;5.200000
77516;PMS7003;68414;53.946;27.634;2023-05-10T00:21:54;7.116667;6.650000;5.083333
77516;PMS7003;68414;53.946;27.634;2023-05-10T00:22:54;7.733333;7.283333;5.316667
77516;PMS7003;68414;53.946;27.634;2023-05-10T00:23:54;7.533333;7.533333;5.433333
77516;PMS7003;68414;53.946;27.634;2023-05-10T00:24:54;6.800000;6.516667;4.866667
77516;PMS7003;68414;53.946;27.634;2023-05-10T00:25:55;6.133333;5.616667;4.133333
77516;PMS7003;68414;53.946;27.634;2023-05-10T00:26:54;7.300000;7.216667;5.516667
77516;PMS7003;68414;53.946;27.634;2023-05-10T00:27:55;7.066667;6.716667;5.683333
77516;PMS7003;68414;53.946;27.634;2023-05-10T00:28:54;7.250000;7.033333;5.266667
77516;PMS7003;68414;53.946;27.634;2023-05-10T00:29:55;6.600000;6.416667;4.666667
77516;PMS7003;68414;53.946;27.634;2023-05-10T00:30:55;7.166667;7.166667;5.650000
77516;PMS7003;68414;53.946;27.634;2023-05-10T00:31:54;7.150000;6.933333;4.716667
77516;PMS7003;68414;53.946;27.634;2023-05-10T00:32:54;6.433333;6.433333;4.983333
77516;PMS7003;68414;53.946;27.634;2023-05-10T00:33:55;6.050000;6.050000;4.733333
77516;PMS7003;68414;53.946;27.634;2023-05-10T00:34:55;5.933333;5.933333;4.216667
77516;PMS7003;68414;53.946;27.634;2023-05-10T00:35:54;5.300000;5.183333;3.866667
77516;PMS7003;68414;53.946;27.634;2023-05-10T00:36:55;6.416667;5.583333;3.983333
77516;PMS7003;68414;53.946;27.634;2023-05-10T00:37:54;8.050000;7.766667;5.383333
77516;PMS7003;68414;53.946;27.634;2023-05-10T00:38:54;6.900000;6.316667;4.883333
77516;PMS7003;68414;53.946;27.634;2023-05-10T00:39:54;6.516667;6.150000;4.750000
77516;PMS7003;68414;53.946;27.634;2023-05-10T00:40:54;7.416667;6.900000;5.250000
77516;PMS7003;68414;53.946;27.634;2023-05-10T00:41:54;5.066667;5.066667;3.866667
77516;PMS7003;68414;53.946;27.634;2023-05-10T00:42:57;7.050000;6.516667;4.900000
77516;PMS7003;68414;53.946;27.634;2023-05-10T00:43:54;6.900000;6.150000;4.816667
77516;PMS7003;68414;53.946;27.634;2023-05-10T00:44:54;6.400000;6.400000;4.200000
77516;PMS7003;68414;53.946;27.634;2023-05-10T00:45:55;6.450000;5.800000;4.216667
77516;PMS7003;68414;53.946;27.634;2023-05-10T00:46:54;6.350000;6.266667;4.350000
77516;PMS7003;68414;53.946;27.634;2023-05-10T00:47:55;6.866667;6.383333;4.716667
77516;PMS7003;68414;53.946;27.634;2023-05-10T00:48:55;6.800000;6.316667;4.933333
77516;PMS7003;68414;53.946;27.634;2023-05-10T00:49:55;6.600000;5.650000;4.050000
77516;PMS7003;68414;53.946;27.634;2023-05-10T00:50:56;7.800000;7.633333;5.050000
77516;PMS7003;68414;53.946;27.634;2023-05-10T00:51:55;6.516667;6.216667;4.600000
77516;PMS7003;68414;53.946;27.634;2023-05-10T00:52:55;6.050000;5.433333;4.416667
77516;PMS7003;68414;53.946;27.634;2023-05-10T00:53:55;7.866667;7.633333;5.883333
77516;PMS7003;68414;53.946;27.634;2023-05-10T00:54:55;5.500000;5.483333;4.366667
77516;PMS7003;68414;53.946;27.634;2023-05-10T00:55:55;6.516667;6.283333;5.066667
77516;PMS7003;68414;53.946;27.634;2023-05-10T00:56:55;5.733333;5.733333;4.516667
77516;PMS7003;68414;53.946;27.634;2023-05-10T00:57:55;7.266667;7.066667;5.466667
77516;PMS7003;68414;53.946;27.634;2023-05-10T00:58:55;7.450000;6.900000;5.033333
77516;PMS7003;68414;53.946;27.634;2023-05-10T00:59:54;7.350000;6.216667;4.733333
77516;PMS7003;68414;53.946;27.634;2023-05-10T01:00:55;7.116667;6.883333;4.550000
77516;PMS7003;68414;53.946;27.634;2023-05-10T01:01:56;7.116667;6.666667;4.616667
77516;PMS7003;68414;53.946;27.634;2023-05-10T01:02:55;7.166667;7.166667;5.916667
77516;PMS7003;68414;53.946;27.634;2023-05-10T01:03:55;6.916667;6.916667;5.333333
77516;PMS7003;68414;53.946;27.634;2023-05-10T01:04:55;9.200000;8.350000;5.283333
77516;PMS7003;68414;53.946;27.634;2023-05-10T01:05:54;6.316667;6.133333;4.616667
77516;PMS7003;68414;53.946;27.634;2023-05-10T01:06:54;6.833333;6.650000;5.050000
77516;PMS7003;68414;53.946;27.634;2023-05-10T01:07:56;6.000000;5.866667;4.950000
77516;PMS7003;68414;53.946;27.634;2023-05-10T01:08:55;7.483333;6.616667;4.900000
77516;PMS7003;68414;53.946;27.634;2023-05-10T01:09:56;7.283333;6.816667;4.466667
77516;PMS7003;68414;53.946;27.634;2023-05-10T01:10:55;6.550000;6.233333;4.583333
77516;PMS7003;68414;53.946;27.634;2023-05-10T01:11:55;7.683333;7.483333;5.350000
77516;PMS7003;68414;53.946;27.634;2023-05-10T01:12:55;7.683333;7.683333;5.933333
77516;PMS7003;68414;53.946;27.634;2023-05-10T01:13:56;8.000000;7.250000;5.616667
77516;PMS7003;68414;53.946;27.634;2023-05-10T01:14:55;8.883333;8.250000;6.483333
77516;PMS7003;68414;53.946;27.634;2023-05-10T01:15:55;8.900000;8.400000;6.066667
77516;PMS7003;68414;53.946;27.634;2023-05-10T01:16:55;7.466667;6.816667;5.233333
77516;PMS7003;68414;53.946;27.634;2023-05-10T01:17:55;6.983333;6.933333;4.983333
77516;PMS7003;68414;53.946;27.634;2023-05-10T01:18:55;7.466667;7.333333;5.900000
77516;PMS7003;68414;53.946;27.634;2023-05-10T01:19:54;7.350000;7.016667;5.583333
77516;PMS7003;68414;53.946;27.634;2023-05-10T01:40:19;8.850000;7.383333;5.916667
77516;PMS7003;68414;53.946;27.634;2023-05-10T01:42:59;8.266666;7.483333;5.466667
77516;PMS7003;68414;53.946;27.634;2023-05-10T01:44:58;7.916667;7.833333;5.666667
77516;PMS7003;68414;53.946;27.634;2023-05-10T01:48:17;8.833333;8.016666;5.800000
77516;PMS7003;68414;53.946;27.634;2023-05-10T01:48:57;8.900000;8.300000;5.833333
77516;PMS7003;68414;53.946;27.634;2023-05-10T01:49:56;10.466666;10.116667;7.183333
77516;PMS7003;68414;53.946;27.634;2023-05-10T01:50:56;8.350000;8.000000;6.016667
77516;PMS7003;68414;53.946;27.634;2023-05-10T01:51:59;9.250000;9.200000;6.983333
77516;PMS7003;68414;53.946;27.634;2023-05-10T01:52:57;8.983334;8.816667;6.916667
77516;PMS7003;68414;53.946;27.634;2023-05-10T01:54:00;9.616667;8.883333;6.633333
77516;PMS7003;68414;53.946;27.634;2023-05-10T01:55:55;9.033334;8.616667;6.216667
77516;PMS7003;68414;53.946;27.634;2023-05-10T01:56:59;9.500000;8.850000;6.900000
77516;PMS7003;68414;53.946;27.634;2023-05-10T01:58:00;8.550000;7.966667;5.933333
77516;PMS7003;68414;53.946;27.634;2023-05-10T01:58:56;10.766666;10.283334;6.850000
77516;PMS7003;68414;53.946;27.634;2023-05-10T01:59:55;9.666667;8.933333;6.533333
77516;PMS7003;68414;53.946;27.634;2023-05-10T02:00:55;9.000000;8.266666;6.166667
77516;PMS7003;68414;53.946;27.634;2023-05-10T02:01:57;8.816667;8.366667;6.100000
77516;PMS7003;68414;53.946;27.634;2023-05-10T02:02:55;9.983334;8.400000;6.450000
77516;PMS7003;68414;53.946;27.634;2023-05-10T02:03:55;8.116667;7.066667;5.666667
77516;PMS7003;68414;53.946;27.634;2023-05-10T02:04:54;8.450000;8.300000;5.800000
77516;PMS7003;68414;53.946;27.634;2023-05-10T02:05:55;8.300000;8.000000;5.916667
77516;PMS7003;68414;53.946;27.634;2023-05-10T02:06:55;8.083333;7.300000;6.050000
77516;PMS7003;68414;53.946;27.634;2023-05-10T02:07:55;8.166667;7.300000;5.883333
77516;PMS7003;68414;53.946;27.634;2023-05-10T02:08:55;7.166667;6.816667;5.583333
77516;PMS7003;68414;53.946;27.634;2023-05-10T02:09:55;8.733334;8.300000;6.566667
77516;PMS7003;68414;53.946;27.634;2023-05-10T02:10:56;9.400000;8.916667;7.200000
77516;PMS7003;68414;53.946;27.634;2023-05-10T02:11:55;10.500000;9.150000;7.016667
77516;PMS7003;68414;53.946;27.634;2023-05-10T02:12:55;9.016666;8.400000;6.566667
77516;PMS7003;68414;53.946;27.634;2023-05-10T02:13:55;9.000000;8.983334;6.566667
77516;PMS7003;68414;53.946;27.634;2023-05-10T02:14:55;10.150000;9.483334;7.600000
77516;PMS7003;68414;53.946;27.634;2023-05-10T02:15:55;8.616667;8.366667;6.400000
77516;PMS7003;68414;53.946;27.634;2023-05-10T02:16:55;10.000000;8.816667;6.416667
77516;PMS7003;68414;53.946;27.634;2023-05-10T02:17:56;8.500000;8.383333;6.133333
77516;PMS7003;68414;53.946;27.634;2023-05-10T02:18:56;8.383333;7.850000;6.083333
77516;PMS7003;68414;53.946;27.634;2023-05-10T02:19:56;7.483333;7.416667;6.033333
77516;PMS7003;68414;53.946;27.634;2023-05-10T02:20:55;8.883333;8.616667;6.516667
77516;PMS7003;68414;53.946;27.634;2023-05-10T02:21:55;8.400000;7.866667;6.183333
77516;PMS7003;68414;53.946;27.634;2023-05-10T02:22:56;9.750000;9.266666;6.916667
77516;PMS7003;68414;53.946;27.634;2023-05-10T02:23:56;8.616667;8.166667;6.400000
77516;PMS7003;68414;53.946;27.634;2023-05-10T02:24:55;8.366667;8.100000;6.533333
77516;PMS7003;68414;53.946;27.634;2023-05-10T02:25:55;8.966666;8.733334;6.466667
77516;PMS7003;68414;53.946;27.634;2023-05-10T02:26:55;8.650000;8.650000;6.550000
77516;PMS7003;68414;53.946;27.634;2023-05-10T02:27:55;8.316667;8.316667;6.416667
77516;PMS7003;68414;53.946;27.634;2023-05-10T02:28:56;8.133333;7.883333;5.866667
77516;PMS7003;68414;53.946;27.634;2023-05-10T02:29:55;7.633333;7.116667;5.716667
77516;PMS7003;68414;53.946;27.634;2023-05-10T02:30:55;9.283334;8.466666;6.233333
77516;PMS7003;68414;53.946;27.634;2023-05-10T02:31:55;7.833333;7.700000;6.566667
77516;PMS7003;68414;53.946;27.634;2023-05-10T02:32:56;8.333333;8.333333;6.066667
77516;PMS7003;68414;53.946;27.634;2023-05-10T02:33:56;7.400000;6.833333;5.383333
77516;PMS7003;68414;53.946;27.634;2023-05-10T02:34:55;6.833333;6.583333;5.483333
77516;PMS7003;68414;53.946;27.634;2023-05-10T02:35:55;9.000000;8.483334;5.916667
77516;PMS7003;68414;53.946;27.634;2023-05-10T02:36:55;9.550000;9.000000;6.400000
77516;PMS7003;68414;53.946;27.634;2023-05-10T02:37:55;8.033334;8.033334;5.833333
77516;PMS7003;68414;53.946;27.634;2023-05-10T02:38:55;8.616667;8.616667;6.650000
77516;PMS7003;68414;53.946;27.634;2023-05-10T02:39:55;9.216666;8.750000;6.083333
77516;PMS7003;68414;53.946;27.634;2023-05-10T02:40:55;10.183333;9.500000;7.116667
77516;PMS7003;68414;53.946;27.634;2023-05-10T02:41:55;9.533334;9.133333;6.383333
77516;PMS7003;68414;53.946;27.634;2023-05-10T02:42:56;9.933333;9.800000;7.300000
77516;PMS7003;68414;53.946;27.634;2023-05-10T02:43:57;9.216666;9.216666;6.583333
77516;PMS7003;68414;53.946;27.634;2023-05-10T02:44:59;9.133333;8.900000;6.316667
77516;PMS7003;68414;53.946;27.634;2023-05-10T02:45:54;9.966666;9.700000;7.050000
77516;PMS7003;68414;53.946;27.634;2023-05-10T02:46:54;8.516666;7.733333;6.183333
77516;PMS7003;68414;53.946;27.634;2023-05-10T02:47:55;8.550000;8.233334;5.950000
77516;PMS7003;68414;53.946;27.634;2023-05-10T02:48:54;8.683333;8.133333;6.500000
77516;PMS7003;68414;53.946;27.634;2023-05-10T02:49:55;8.900000;8.716666;5.933333
77516;PMS7003;68414;53.946;27.634;2023-05-10T02:50:56;8.616667;8.316667;6.850000
77516;PMS7003;68414;53.946;27.634;2023-05-10T02:51:58;9.150000;8.933333;5.916667
77516;PMS7003;68414;53.946;27.634;2023-05-10T02:52:59;9.316667;8.866667;6.633333
77516;PMS7003;68414;53.946;27.634;2023-05-10T02:53:56;8.766666;8.333333;6.300000
77516;PMS7003;68414;53.946;27.634;2023-05-10T02:54:58;8.600000;8.466666;6.416667
77516;PMS7003;68414;53.946;27.634;2023-05-10T02:55:57;9.083333;8.333333;6.033333
77516;PMS7003;68414;53.946;27.634;2023-05-10T02:56:57;9.900000;8.066667;5.983333
77516;PMS7003;68414;53.946;27.634;2023-05-10T02:57:57;10.450000;9.166667;6.066667
77516;PMS7003;68414;53.946;27.634;2023-05-10T02:58:55;9.400000;8.933333;6.700000
77516;PMS7003;68414;53.946;27.634;2023-05-10T02:59:54;8.633333;7.866667;6.433333
77516;PMS7003;68414;53.946;27.634;2023-05-10T03:00:55;8.816667;7.883333;5.850000
77516;PMS7003;68414;53.946;27.634;2023-05-10T03:01:54;8.800000;8.200000;6.083333
77516;PMS7003;68414;53.946;27.634;2023-05-10T03:02:55;8.666667;7.766667;5.850000
77516;PMS7003;68414;53.946;27.634;2023-05-10T03:03:54;10.033334;9.266666;7.300000
77516;PMS7003;68414;53.946;27.634;2023-05-10T03:04:54;8.016666;7.683333;5.850000
77516;PMS7003;68414;53.946;27.634;2023-05-10T03:05:54;8.216666;7.933333;6.000000
77516;PMS7003;68414;53.946;27.634;2023-05-10T03:06:54;8.116667;7.650000;5.966667
77516;PMS7003;68414;53.946;27.634;2023-05-10T03:07:54;8.500000;8.200000;6.383333
77516;PMS7003;68414;53.946;27.634;2023-05-10T03:08:54;9.000000;8.450000;6.950000
77516;PMS7003;68414;53.946;27.634;2023-05-10T03:09:54;8.966666;8.066667;6.133333
77516;PMS7003;68414;53.946;27.634;2023-05-10T03:12:00;9.383333;8.883333;6.716667
77516;PMS7003;68414;53.946;27.634;2023-05-10T03:14:01;8.350000;8.066667;6.183333
77516;PMS7003;68414;53.946;27.634;2023-05-10T03:16:58;7.950000;7.216667;5.933333
77516;PMS7003;68414;53.946;27.634;2023-05-10T03:19:02;8.683333;8.266666;6.283333
77516;PMS7003;68414;53.946;27.634;2023-05-10T03:19:57;8.166667;8.166667;5.666667
77516;PMS7003;68414;53.946;27.634;2023-05-10T03:20:57;8.133333;8.133333;6.100000
77516;PMS7003;68414;53.946;27.634;2023-05-10T03:21:55;6.500000;6.316667;5.066667
77516;PMS7003;68414;53.946;27.634;2023-05-10T03:23:00;7.200000;7.200000;5.916667
77516;PMS7003;68414;53.946;27.634;2023-05-10T03:24:56;8.600000;8.600000;6.400000
77516;PMS7003;68414;53.946;27.634;2023-05-10T03:25:54;8.650000;7.850000;6.350000
77516;PMS7003;68414;53.946;27.634;2023-05-10T03:26:56;8.833333;8.233334;6.166667
77516;PMS7003;68414;53.946;27.634;2023-05-10T03:27:56;9.050000;8.883333;6.666667
77516;PMS7003;68414;53.946;27.634;2023-05-10T03:28:55;9.300000;9.050000;7.433333
77516;PMS7003;68414;53.946;27.634;2023-05-10T03:29:55;8.750000;7.683333;5.916667
77516;PMS7003;68414;53.946;27.634;2023-05-10T03:30:55;8.150000;7.916667;6.583333
77516;PMS7003;68414;53.946;27.634;2023-05-10T03:31:54;9.483334;8.533334;6.666667
77516;PMS7003;68414;53.946;27.634;2023-05-10T03:32:55;9.050000;8.750000;6.866667
77516;PMS7003;68414;53.946;27.634;2023-05-10T03:33:54;10.433333;9.750000;7.066667
77516;PMS7003;68414;53.946;27.634;2023-05-10T03:34:54;10.283334;9.466666;7.100000
77516;PMS7003;68414;53.946;27.634;2023-05-10T03:35:54;9.216666;8.600000;6.666667
77516;PMS7003;68414;53.946;27.634;2023-05-10T03:36:54;9.200000;8.783334;6.366667
77516;PMS7003;68414;53.946;27.634;2023-05-10T03:37:54;10.400000;9.816667;7.016667
77516;PMS7003;68414;53.946;27.634;2023-05-10T03:38:54;12.283334;11.150000;9.300000
77516;PMS7003;68414;53.946;27.634;2023-05-10T03:39:54;12.866667;11.916667;9.133333
77516;PMS7003;68414;53.946;27.634;2023-05-10T03:40:54;10.650000;10.650000;8.466666
77516;PMS7003;68414;53.946;27.634;2023-05-10T03:41:54;11.016666;10.516666;7.750000
77516;PMS7003;68414;53.946;27.634;2023-05-10T03:42:55;10.550000;10.333333;7.500000
77516;PMS7003;68414;53.946;27.634;2023-05-10T03:43:54;11.400000;10.583333;8.183333
77516;PMS7003;68414;53.946;27.634;2023-05-10T03:44:54;10.516666;10.383333;8.083333
77516;PMS7003;68414;53.946;27.634;2023-05-10T03:45:54;11.483334;11.000000;8.400000
77516;PMS7003;68414;53.946;27.634;2023-05-10T03:46:54;12.666667;11.683333;8.950000
77516;PMS7003;68414;53.946;27.634;2023-05-10T03:47:54;11.416667;10.633333;7.516667
77516;PMS7003;68414;53.946;27.634;2023-05-10T03:48:54;10.766666;10.550000;7.383333
77516;PMS7003;68414;53.946;27.634;2023-05-10T03:49:55;10.666667;10.666667;7.983333
77516;PMS7003;68414;53.946;27.634;2023-05-10T03:50:54;12.900000;12.700000;9.200000
77516;PMS7003;68414;53.946;27.634;2023-05-10T03:51:54;12.100000;11.216666;8.500000
77516;PMS7003;68414;53.946;27.634;2023-05-10T03:52:54;12.466666;12.166667;8.550000
77516;PMS7003;68414;53.946;27.634;2023-05-10T03:53:54;10.766666;10.416667;7.633333
77516;PMS7003;68414;53.946;27.634;2023-05-10T03:54:54;10.883333;10.666667;8.066667
77516;PMS7003;68414;53.946;27.634;2023-05-10T03:55:54;13.016666;12.583333;9.283334
77516;PMS7003;68414;53.946;27.634;2023-05-10T03:56:54;12.333333;11.866667;8.683333
77516;PMS7003;68414;53.946;27.634;2023-05-10T03:57:54;12.216666;11.783334;8.716666
77516;PMS7003;68414;53.946;27.634;2023-05-10T03:58:54;13.866667;13.266666;9.600000
77516;PMS7003;68414;53.946;27.634;2023-05-10T03:59:54;13.266666;12.116667;9.383333
77516;PMS7003;68414;53.946;27.634;2023-05-10T04:00:54;14.366667;13.566667;10.166667
77516;PMS7003;68414;53.946;27.634;2023-05-10T04:01:54;10.866667;10.866667;8.600000
77516;PMS7003;68414;53.946;27.634;2023-05-10T04:02:54;12.266666;11.100000;8.400000
77516;PMS7003;68414;53.946;27.634;2023-05-10T04:03:54;11.616667;11.616667;8.566667
77516;PMS7003;68414;53.946;27.634;2023-05-10T04:04:54;14.483334;13.283334;9.433333
77516;PMS7003;68414;53.946;27.634;2023-05-10T04:06:54;13.050000;12.616667;9.666667
77516;PMS7003;68414;53.946;27.634;2023-05-10T04:07:55;14.833333;14.333333;9.833333
77516;PMS7003;68414;53.946;27.634;2023-05-10T04:08:54;13.366667;12.633333;8.933333
77516;PMS7003;68414;53.946;27.634;2023-05-10T04:09:54;12.366667;11.866667;8.816667
77516;PMS7003;68414;53.946;27.634;2023-05-10T04:10:54;14.500000;13.633333;9.683333
77516;PMS7003;68414;53.946;27.634;2023-05-10T04:11:54;13.900000;13.216666;9.800000
77516;PMS7003;68414;53.946;27.634;2023-05-10T04:12:54;14.333333;13.450000;9.616667
77516;PMS7003;68414;53.946;27.634;2023-05-10T04:13:54;14.450000;12.850000;9.783334
77516;PMS7003;68414;53.946;27.634;2023-05-10T04:14:54;12.300000;11.833333;8.550000
77516;PMS7003;68414;53.946;27.634;2023-05-10T04:15:54;13.350000;12.550000;9.450000
77516;PMS7003;68414;53.946;27.634;2023-05-10T04:16:54;12.283334;11.266666;9.033334
77516;PMS7003;68414;53.946;27.634;2023-05-10T04:17:54;12.100000;12.066667;9.666667
77516;PMS7003;68414;53.946;27.634;2023-05-10T04:18:54;15.616667;14.516666;10.433333
77516;PMS7003;68414;53.946;27.634;2023-05-10T04:19:55;13.566667;13.416667;9.166667
77516;PMS7003;68414;53.946;27.634;2023-05-10T04:20:54;13.933333;13.383333;10.200000
77516;PMS7003;68414;53.946;27.634;2023-05-10T04:21:54;13.716666;13.233334;9.716666
77516;PMS7003;68414;53.946;27.634;2023-05-10T04:22:54;12.200000;12.200000;9.066667
77516;PMS7003;68414;53.946;27.634;2023-05-10T04:23:54;15.783334;14.866667;10.966666
77516;PMS7003;68414;53.946;27.634;2023-05-10T04:24:54;15.116667;14.500000;10.366667
77516;PMS7003;68414;53.946;27.634;2023-05-10T04:26:54;23.950001;23.566668;16.549999
77516;PMS7003;68414;53.946;27.634;2023-05-10T04:27:54;25.483334;24.216667;17.500000
77516;PMS7003;68414;53.946;27.634;2023-05-10T04:28:54;22.116667;21.466667;14.133333
77516;PMS7003;68414;53.946;27.634;2023-05-10T04:29:54;23.066668;22.466667;15.816667
77516;PMS7003;68414;53.946;27.634;2023-05-10T04:31:54;28.233334;25.716667;16.299999
77516;PMS7003;68414;53.946;27.634;2023-05-10T04:32:56;26.350000;25.083334;17.100000
77516;PMS7003;68414;53.946;27.634;2023-05-10T04:33:54;24.733334;23.983334;16.583334
77516;PMS7003;68414;53.946;27.634;2023-05-10T04:34:54;28.850000;26.433332;18.500000
77516;PMS7003;68414;53.946;27.634;2023-05-10T04:35:54;28.716667;26.383333;18.033333
77516;PMS7003;68414;53.946;27.634;2023-05-10T04:36:54;26.500000;24.766666;17.066668
77516;PMS7003;68414;53.946;27.634;2023-05-10T04:37:54;24.200001;23.033333;16.533333
77516;PMS7003;68414;53.946;27.634;2023-05-10T04:38:54;23.299999;22.566668;16.299999
77516;PMS7003;68414;53.946;27.634;2023-05-10T04:39:54;21.183332;20.133333;15.066667
77516;PMS7003;68414;53.946;27.634;2023-05-10T04:40:54;20.549999;19.799999;14.383333
77516;PMS7003;68414;53.946;27.634;2023-05-10T04:41:54;22.750000;20.750000;14.566667
77516;PMS7003;68414;53.946;27.634;2023-05-10T04:42:54;26.250000;24.799999;16.333334
77516;PMS7003;68414;53.946;27.634;2023-05-10T04:43:54;32.750000;30.266666;19.400000
77516;PMS7003;68414;53.946;27.634;2023-05-10T04:44:54;37.549999;33.299999;22.183332
77516;PMS7003;68414;53.946;27.634;2023-05-10T04:45:56;42.666668;35.583332;23.766666
77516;PMS7003;68414;53.946;27.634;2023-05-10T04:46:54;36.283333;32.150002;22.233334
77516;PMS7003;68414;53.946;27.634;2023-05-10T04:47:54;32.416668;30.200001;20.750000
77516;PMS7003;68414;53.946;27.634;2023-05-10T04:48:54;24.683332;23.650000;17.016666
77516;PMS7003;68414;53.946;27.634;2023-05-10T04:49:54;18.100000;17.100000;12.983334
77516;PMS7003;68414;53.946;27.634;2023-05-10T04:50:54;16.683332;15.616667;11.716666
77516;PMS7003;68414;53.946;27.634;2023-05-10T04:51:54;15.383333;14.916667;11.283334
77516;PMS7003;68414;53.946;27.634;2023-05-10T04:52:54;17.900000;15.800000;11.550000
77516;PMS7003;68414;53.946;27.634;2023-05-10T04:53:54;15.366667;14.366667;10.700000
77516;PMS7003;68414;53.946;27.634;2023-05-10T04:54:54;18.883333;17.549999;11.933333
77516;PMS7003;68414;53.946;27.634;2023-05-10T04:55:54;16.816668;16.200001;12.366667
77516;PMS7003;68414;53.946;27.634;2023-05-10T04:56:54;17.500000;16.916666;12.683333
77516;PMS7003;68414;53.946;27.634;2023-05-10T04:57:54;15.766666;15.633333;11.716666
77516;PMS7003;68414;53.946;27.634;2023-05-10T04:58:54;21.633333;21.183332;16.116667
77516;PMS7003;68414;53.946;27.634;2023-05-10T04:59:54;23.866667;22.366667;16.466667
77516;PMS7003;68414;53.946;27.634;2023-05-10T05:00:54;23.083334;22.299999;16.200001
77516;PMS7003;68414;53.946;27.634;2023-05-10T05:01:54;22.950001;22.483334;16.833334
77516;PMS7003;68414;53.946;27.634;2023-05-10T05:02:54;21.333334;20.983334;15.116667
77516;PMS7003;68414;53.946;27.634;2023-05-10T05:03:54;22.033333;21.000000;15.133333
77516;PMS7003;68414;53.946;27.634;2023-05-10T05:04:56;22.366667;21.633333;14.516666
77516;PMS7003;68414;53.946;27.634;2023-05-10T05:05:54;20.483334;20.066668;14.883333
77516;PMS7003;68414;53.946;27.634;2023-05-10T05:06:54;26.433332;25.883333;19.350000
77516;PMS7003;68414;53.946;27.634;2023-05-10T05:07:54;27.533333;26.933332;19.333334
77516;PMS7003;68414;53.946;27.634;2023-05-10T05:08:54;31.100000;29.400000;20.883333
77516;PMS7003;68414;53.946;27.634;2023-05-10T05:09:54;27.633333;26.516666;19.666666
77516;PMS7003;68414;53.946;27.634;2023-05-10T05:10:54;41.183334;36.216667;25.266666
77516;PMS7003;68414;53.946;27.634;2023-05-10T05:11:54;27.416666;26.516666;19.666666
77516;PMS7003;68414;53.946;27.634;2023-05-10T05:12:54;23.416666;22.200001;15.966666
77516;PMS7003;68414;53.946;27.634;2023-05-10T05:13:54;21.150000;20.299999;15.650000
77516;PMS7003;68414;53.946;27.634;2023-05-10T05:14:54;27.033333;25.950001;18.283333
77516;PMS7003;68414;53.946;27.634;2023-05-10T05:15:54;29.816668;29.083334;21.150000
77516;PMS7003;68414;53.946;27.634;2023-05-10T05:16:54;31.266666;29.516666;20.516666
77516;PMS7003;68414;53.946;27.634;2023-05-10T05:17:54;32.233334;29.883333;21.233334
77516;PMS7003;68414;53.946;27.634;2023-05-10T05:18:54;33.583332;31.200001;22.100000
77516;PMS7003;68414;53.946;27.634;2023-05-10T05:19:54;37.016666;32.866665;23.133333
77516;PMS7003;68414;53.946;27.634;2023-05-10T05:20:54;34.283333;30.950001;21.716667
77516;PMS7003;68414;53.946;27.634;2023-05-10T05:21:54;29.900000;28.850000;20.183332
77516;PMS7003;68414;53.946;27.634;2023-05-10T05:22:54;27.066668;26.666666;19.766666
77516;PMS7003;68414;53.946;27.634;2023-05-10T05:23:54;27.116667;26.233334;18.799999
77516;PMS7003;68414;53.946;27.634;2023-05-10T05:24:55;21.250000;20.316668;14.866667
77516;PMS7003;68414;53.946;27.634;2023-05-10T05:25:54;18.916666;17.450001;12.416667